Portada
METAR-TAF:

METAR-TAF

Aeropuertos :

Aeropuerto Internacional de Yamena

Yamena, Chad

latitud: 12-08N, longitud: 015-02E, altitud: 295 m

Observación

El informe se hizo hace 37 minutos, a las 20:00 UTC
Viento 5 kt del norte-noroeste
Temperatura 22°C
Humedad 14%
Presión 1013 hPa
Visibilidad: 6000 m

METAR: FTTJ 182000Z 33005KT 6000 NSC 22/M07 Q1013 NOSIG

Hora: 21:37 (20:37 UTC)

Pronóstico

El informe se hizo hace 3 horas y 37 minutos, a las 17:00 UTC
Pronóstico válido del 18 a las 18 UTC al 19 a las 24 UTC
Viento 8 kt del norte
Visibilidad: 8000 m

TAF: FTTJ 181700Z 1818/1924 01008KT 8000 NSC

Observaciones y pronósticos meteorológicos de más de 4000 aeropuertos (mensajes METAR y TAF).

Los puntos amarillos y rojos representan las estaciones disponibles.

Ponga el ratón en el punto deseado para ver el nombre de la estación.

Haga clic para ver las observaciones y los pronósticos meteorológicos.

Para cambiar el mapa : haga clic en los botones verdes con una cruz de color negro para hacer un zoom, en el botón verde con un guión para alejar o en las flechas verdes para mapas adyacentes.


METAR-TAF: